Portada
METAR-TAF:

METAR-TAF

Aeroports :

Maringá, Paranà, Brasil

latitud: 23-25S, longitud: 051-57W, altitud: 542 m

Observació

L'informe es va fer fa 59 minuts, a les 20:00 UTC
Vent 5 kt del Nord-Est
Temperatura 28°C
Humitat 30%
Pressió 1021 hPa
Visibilitat 10 km o més
sense núvols per sota de 1500 mi sense presència de cumulonimbus.

METAR: SBMG 072000Z 05005KT CAVOK 28/09 Q1021

Hora: 17:59 (20:59 UTC)


TAF: manca

Observacions i pronòstics meteorològics de més de 4000 aeroports (METAR i TAF).

Les estacions disponibles són els punts grocs i vermells al mapa.

Posi el ratolí al punt desitjat per veure el nom de l'estació.

Feu clic per veure les observacions i els pronòstics meteorològics.

Per canviar el mapa: feu clic els botons verds amb una creu de color negre per apropar; al botó verd amb un guió per allunyar la imatge; o en les fletxes verdes per a mapes adjacents.


METAR-TAF: